Time;durP1;ratioP1;P1;durP2;ratioP2;P2;SDS_P1;SDS_P2;PMS_P1;PMS_P2;Temp;Humidity;BMP_temperature;BMP_pressure;BME280_temperature;BME280_humidity;BME280_pressure;Samples;Min_cycle;Max_cycle;Signal;HPM_P1;HPM_P2
2022/08/27 00:01:07;;;;;;;9.73;8.73;;;18.90;99.90;;;;;;5045230;28;20871;-53
2022/08/27 00:03:33;;;;;;;12.70;7.70;;;18.90;99.90;;;;;;5047295;28;20470;-52
2022/08/27 00:06:00;;;;;;;9.13;8.27;;;19.00;99.90;;;;;;5045526;28;20458;-52
2022/08/27 00:08:27;;;;;;;9.33;8.43;;;19.00;99.90;;;;;;5048739;28;20466;-52
2022/08/27 00:10:53;;;;;;;9.10;7.57;;;19.00;99.90;;;;;;5043587;28;20454;-52
2022/08/27 00:13:21;;;;;;;9.07;8.17;;;19.00;99.90;;;;;;5048825;28;20552;-52
2022/08/27 00:15:48;;;;;;;13.97;8.67;;;18.90;99.90;;;;;;5044752;28;20489;-52
2022/08/27 00:18:15;;;;;;;10.37;9.00;;;18.90;99.90;;;;;;5048849;28;20462;-54
2022/08/27 00:20:42;;;;;;;13.00;8.63;;;18.90;99.90;;;;;;5048194;28;20746;-52
2022/08/27 00:23:09;;;;;;;12.47;8.67;;;18.90;99.90;;;;;;5047192;28;21018;-54
2022/08/27 00:25:35;;;;;;;13.10;9.20;;;18.90;99.90;;;;;;5045557;28;20469;-50
2022/08/27 00:28:02;;;;;;;10.40;8.70;;;18.90;99.90;;;;;;5047663;28;20466;-51
2022/08/27 00:30:30;;;;;;;9.60;7.53;;;19.00;99.90;;;;;;5045860;28;20462;-52
2022/08/27 00:32:57;;;;;;;8.40;7.60;;;19.00;99.90;;;;;;5046589;28;20885;-52
2022/08/27 00:35:24;;;;;;;10.27;8.13;;;19.00;99.90;;;;;;5046318;28;20489;-52
2022/08/27 00:37:50;;;;;;;9.90;7.90;;;19.00;99.90;;;;;;5052941;28;20465;-51
2022/08/27 00:40:20;;;;;;;10.73;7.80;;;18.90;99.90;;;;;;5048618;28;20972;-52
2022/08/27 00:42:47;;;;;;;9.27;8.33;;;19.00;99.90;;;;;;5051416;28;20511;-51
2022/08/27 00:45:15;;;;;;;11.73;8.60;;;18.90;99.90;;;;;;5049760;28;20500;-52
2022/08/27 00:47:47;;;;;;;9.83;8.87;;;19.00;99.90;;;;;;5051099;28;20459;-52
2022/08/27 00:50:16;;;;;;;11.03;8.63;;;19.00;99.90;;;;;;5052359;28;20981;-52
2022/08/27 00:52:46;;;;;;;11.20;9.43;;;19.00;99.90;;;;;;5046610;28;20519;-51
2022/08/27 00:55:16;;;;;;;16.43;9.10;;;19.00;99.90;;;;;;5049540;28;20532;-52
2022/08/27 00:57:44;;;;;;;11.73;9.50;;;19.00;99.90;;;;;;5045760;28;20947;-52
2022/08/27 01:00:15;;;;;;;18.73;9.80;;;19.00;99.90;;;;;;5049306;28;20462;-52
2022/08/27 01:02:45;;;;;;;14.23;9.50;;;19.00;99.90;;;;;;5046498;28;20462;-52
2022/08/27 01:05:19;;;;;;;10.20;9.30;;;19.00;99.90;;;;;;5044936;28;21030;-51
2022/08/27 01:07:49;;;;;;;9.23;8.30;;;19.00;99.90;;;;;;5049762;28;20461;-52
2022/08/27 01:10:19;;;;;;;10.90;9.27;;;19.00;99.90;;;;;;5051348;28;20503;-51
2022/08/27 01:12:46;;;;;;;11.17;9.40;;;19.10;99.90;;;;;;5051501;28;20477;-51
2022/08/27 01:15:16;;;;;;;11.10;10.00;;;19.10;99.90;;;;;;5051209;28;20554;-52
2022/08/27 01:17:46;;;;;;;16.30;10.43;;;19.10;99.90;;;;;;5048410;28;20464;-52
2022/08/27 01:20:18;;;;;;;13.20;9.90;;;19.10;99.90;;;;;;5050837;28;20467;-51
2022/08/27 01:22:53;;;;;;;19.70;11.30;;;19.00;99.90;;;;;;5051088;28;20466;-51
2022/08/27 01:25:22;;;;;;;14.00;10.53;;;19.00;99.90;;;;;;5048810;28;20476;-52
2022/08/27 01:27:50;;;;;;;12.10;10.77;;;19.00;99.90;;;;;;5051175;28;20461;-51
2022/08/27 01:30:20;;;;;;;11.30;9.90;;;19.10;99.90;;;;;;5047395;28;20472;-52
2022/08/27 01:32:47;;;;;;;12.37;10.27;;;19.10;99.90;;;;;;5042029;28;20561;-52
2022/08/27 01:35:16;;;;;;;12.70;11.40;;;19.10;99.90;;;;;;5050087;28;20539;-51
2022/08/27 01:37:45;;;;;;;37.30;11.23;;;19.10;99.90;;;;;;5049730;28;20457;-51
2022/08/27 01:40:12;;;;;;;16.60;11.10;;;19.10;99.90;;;;;;5045500;28;20460;-51
2022/08/27 01:42:42;;;;;;;13.67;11.90;;;19.10;99.90;;;;;;5051337;28;20458;-52
2022/08/27 01:45:13;;;;;;;13.07;10.60;;;19.10;99.90;;;;;;5049755;28;20528;-52
2022/08/27 01:47:40;;;;;;;19.63;13.13;;;19.10;99.90;;;;;;5050226;28;20465;-52
2022/08/27 01:50:10;;;;;;;13.93;12.53;;;19.10;99.90;;;;;;5046203;28;20531;-52
2022/08/27 01:52:37;;;;;;;12.90;11.57;;;19.10;99.90;;;;;;5043018;28;20458;-51
2022/08/27 01:55:05;;;;;;;13.30;10.60;;;19.10;99.90;;;;;;5050839;28;20638;-51
2022/08/27 01:57:34;;;;;;;16.67;11.23;;;19.10;99.90;;;;;;5051163;28;20490;-52
2022/08/27 02:00:02;;;;;;;14.83;11.57;;;19.10;99.90;;;;;;5048834;28;20466;-51
2022/08/27 02:02:28;;;;;;;23.60;11.60;;;19.10;99.90;;;;;;5044622;28;20464;-51
2022/08/27 02:04:55;;;;;;;14.83;12.47;;;19.10;99.90;;;;;;5048447;28;20493;-52
2022/08/27 02:07:22;;;;;;;15.30;12.20;;;19.10;99.90;;;;;;5048637;28;20466;-51
2022/08/27 02:09:48;;;;;;;16.87;12.20;;;19.10;99.90;;;;;;5048671;28;20457;-51
2022/08/27 02:12:15;;;;;;;13.83;12.10;;;19.10;99.90;;;;;;5046840;28;20486;-52
2022/08/27 02:14:41;;;;;;;15.37;11.77;;;19.10;99.90;;;;;;5049609;28;20484;-52
2022/08/27 02:17:11;;;;;;;16.43;12.83;;;19.10;99.90;;;;;;5048748;28;20512;-51
2022/08/27 02:19:37;;;;;;;14.57;13.03;;;19.10;99.90;;;;;;5047080;28;20892;-51
2022/08/27 02:22:04;;;;;;;23.53;12.37;;;19.00;99.90;;;;;;5045699;28;20469;-51
2022/08/27 02:24:31;;;;;;;14.53;12.57;;;19.10;99.90;;;;;;5050293;28;20478;-51
2022/08/27 02:26:57;;;;;;;18.47;13.13;;;19.10;99.90;;;;;;5047282;28;20471;-51
2022/08/27 02:29:25;;;;;;;14.40;12.83;;;19.10;99.90;;;;;;5048254;28;20470;-52
2022/08/27 02:31:51;;;;;;;20.40;12.80;;;19.10;99.90;;;;;;5045559;28;20462;-52
2022/08/27 02:34:19;;;;;;;16.43;12.77;;;19.10;99.90;;;;;;5046399;28;20490;-52
2022/08/27 02:36:46;;;;;;;19.10;13.10;;;19.00;99.90;;;;;;5048390;28;20513;-51
2022/08/27 02:39:13;;;;;;;27.93;13.43;;;19.10;99.90;;;;;;5046390;28;20462;-51
2022/08/27 02:41:39;;;;;;;15.57;12.90;;;19.10;99.90;;;;;;5048583;28;21005;-51
2022/08/27 02:44:06;;;;;;;15.20;13.30;;;19.10;99.90;;;;;;5048622;28;20486;-52
2022/08/27 02:46:32;;;;;;;14.80;13.30;;;19.10;99.90;;;;;;5043655;28;20521;-51
2022/08/27 02:48:59;;;;;;;18.17;14.37;;;19.10;99.90;;;;;;5050377;28;20862;-51
2022/08/27 02:51:27;;;;;;;26.17;14.30;;;19.10;99.90;;;;;;5047249;28;20458;-51
2022/08/27 02:53:54;;;;;;;18.50;14.43;;;19.10;99.90;;;;;;5046336;28;20482;-51
2022/08/27 02:56:20;;;;;;;17.77;14.13;;;19.10;99.90;;;;;;5050763;28;20481;-50
2022/08/27 02:58:47;;;;;;;20.10;12.17;;;19.10;99.90;;;;;;5045940;28;20466;-52
2022/08/27 03:01:14;;;;;;;23.10;14.27;;;19.10;99.90;;;;;;5044038;28;20967;-51
2022/08/27 03:03:41;;;;;;;17.83;13.70;;;19.10;99.90;;;;;;5048180;28;20515;-52
2022/08/27 03:06:08;;;;;;;17.93;14.93;;;19.10;99.90;;;;;;5049061;28;20516;-51
2022/08/27 03:08:36;;;;;;;21.40;15.13;;;19.10;99.90;;;;;;5046868;28;20454;-52
2022/08/27 03:11:03;;;;;;;16.87;14.73;;;19.10;99.90;;;;;;5041187;28;20458;-52
2022/08/27 03:13:30;;;;;;;15.80;14.10;;;19.10;99.90;;;;;;5044742;28;20488;-51
2022/08/27 03:15:56;;;;;;;21.00;13.50;;;19.10;99.90;;;;;;5047009;28;20485;-52
2022/08/27 03:18:22;;;;;;;17.27;13.30;;;19.10;99.90;;;;;;5047734;28;20462;-52
2022/08/27 03:20:51;;;;;;;26.77;15.70;;;19.10;99.90;;;;;;5045097;28;20503;-51
2022/08/27 03:23:20;;;;;;;14.90;12.67;;;19.10;99.90;;;;;;5047369;28;20453;-52
2022/08/27 03:25:51;;;;;;;18.27;13.93;;;19.10;99.90;;;;;;5047076;28;20564;-52
2022/08/27 03:28:18;;;;;;;25.80;12.90;;;19.10;99.90;;;;;;5045086;28;20453;-52
2022/08/27 03:30:50;;;;;;;16.93;14.63;;;19.10;99.90;;;;;;5045843;28;20531;-52
2022/08/27 03:33:18;;;;;;;38.30;15.37;;;19.10;99.90;;;;;;5046985;28;20470;-52
2022/08/27 03:35:45;;;;;;;16.23;14.13;;;19.10;99.90;;;;;;5044925;28;20572;-52
2022/08/27 03:38:12;;;;;;;19.70;15.27;;;19.10;99.90;;;;;;5046690;28;20462;-52
2022/08/27 03:40:39;;;;;;;24.40;15.70;;;19.10;99.90;;;;;;5047180;28;20873;-52
2022/08/27 03:43:07;;;;;;;20.83;15.77;;;19.00;99.90;;;;;;5043242;28;20942;-52
2022/08/27 03:45:33;;;;;;;16.00;14.30;;;19.00;99.90;;;;;;5042636;28;21197;-51
2022/08/27 03:48:00;;;;;;;17.63;15.20;;;19.00;99.90;;;;;;5043781;28;20486;-51
2022/08/27 03:50:26;;;;;;;18.90;14.70;;;19.00;99.90;;;;;;5046232;28;20986;-51
2022/08/27 03:52:53;;;;;;;28.03;15.57;;;19.00;99.90;;;;;;5045947;28;20458;-51
2022/08/27 03:55:20;;;;;;;18.33;15.43;;;19.00;99.90;;;;;;5045612;28;20520;-51
2022/08/27 03:57:48;;;;;;;18.27;15.60;;;19.00;99.90;;;;;;5040429;28;20552;-52
2022/08/27 04:00:16;;;;;;;21.10;15.13;;;19.00;99.90;;;;;;5045116;28;20870;-51
2022/08/27 04:02:43;;;;;;;17.33;15.23;;;19.00;99.90;;;;;;5045449;28;20507;-52
2022/08/27 04:05:11;;;;;;;16.77;15.00;;;19.00;99.90;;;;;;5044847;28;20481;-51
2022/08/27 04:07:38;;;;;;;19.97;15.70;;;19.00;99.90;;;;;;5049539;28;20519;-51
2022/08/27 04:10:06;;;;;;;18.70;15.03;;;19.00;99.90;;;;;;5046844;28;20942;-52
2022/08/27 04:12:33;;;;;;;21.30;15.60;;;19.00;99.90;;;;;;5046670;28;20527;-52
2022/08/27 04:14:59;;;;;;;22.33;14.67;;;19.00;99.90;;;;;;5041597;28;20482;-52
2022/08/27 04:17:28;;;;;;;16.10;14.43;;;19.00;99.90;;;;;;5045906;28;20539;-52
2022/08/27 04:19:54;;;;;;;16.90;14.13;;;19.00;99.90;;;;;;5044587;28;20465;-52
2022/08/27 04:22:22;;;;;;;24.93;15.20;;;19.00;99.90;;;;;;5044445;28;20467;-53
2022/08/27 04:24:49;;;;;;;18.13;13.67;;;19.10;99.90;;;;;;5045156;28;20519;-52
2022/08/27 04:27:15;;;;;;;21.60;14.50;;;19.00;99.90;;;;;;5044697;28;20458;-53
2022/08/27 04:29:43;;;;;;;21.03;14.60;;;19.10;99.90;;;;;;5049201;28;20939;-53
2022/08/27 04:32:10;;;;;;;17.40;14.60;;;19.10;99.90;;;;;;5041741;28;20461;-51
2022/08/27 04:34:38;;;;;;;18.20;14.80;;;19.10;99.90;;;;;;5056779;22;20493;-49
2022/08/27 04:37:05;;;;;;;19.63;14.33;;;19.10;99.90;;;;;;5041153;28;20547;-49
2022/08/27 04:39:32;;;;;;;18.60;14.20;;;19.10;99.90;;;;;;5048527;28;20468;-49
2022/08/27 04:42:00;;;;;;;19.73;13.90;;;19.10;99.90;;;;;;5046191;28;21073;-50
2022/08/27 04:44:32;;;;;;;18.63;14.03;;;19.10;99.90;;;;;;5046061;28;20532;-51
2022/08/27 04:47:00;;;;;;;16.17;13.97;;;19.10;99.90;;;;;;5031521;28;20961;-50
2022/08/27 04:49:27;;;;;;;18.77;13.27;;;19.10;99.90;;;;;;5030192;28;20516;-50
2022/08/27 04:51:56;;;;;;;17.13;15.03;;;19.10;99.90;;;;;;5024586;28;20490;-49
2022/08/27 04:54:25;;;;;;;18.80;15.40;;;19.10;99.90;;;;;;5026813;28;20483;-50
2022/08/27 04:56:52;;;;;;;17.03;15.20;;;19.10;99.90;;;;;;5033068;28;20490;-51
2022/08/27 04:59:18;;;;;;;22.67;15.67;;;19.10;99.90;;;;;;5033478;28;20494;-51
2022/08/27 05:01:45;;;;;;;22.20;15.00;;;19.10;99.90;;;;;;5026790;28;20540;-50
2022/08/27 05:04:14;;;;;;;17.83;14.73;;;19.10;99.90;;;;;;5027753;28;20466;-49
2022/08/27 05:06:44;;;;;;;21.27;15.67;;;19.10;99.90;;;;;;5027188;28;20463;-49
2022/08/27 05:09:12;;;;;;;21.60;15.50;;;19.10;99.90;;;;;;5027504;28;20463;-49
2022/08/27 05:11:40;;;;;;;18.57;15.10;;;19.00;99.90;;;;;;5028112;28;20673;-51
2022/08/27 05:14:09;;;;;;;21.83;15.20;;;19.00;99.90;;;;;;5030321;28;20523;-50
2022/08/27 05:16:37;;;;;;;18.77;14.57;;;19.10;99.90;;;;;;5028303;28;20476;-49
2022/08/27 05:19:07;;;;;;;24.77;15.60;;;19.10;99.90;;;;;;5027053;28;20466;-50
2022/08/27 05:21:37;;;;;;;25.40;15.97;;;19.10;99.90;;;;;;5033892;28;20489;-50
2022/08/27 05:24:05;;;;;;;26.40;15.13;;;19.10;99.90;;;;;;5029603;28;20463;-50
2022/08/27 05:26:35;;;;;;;24.33;14.10;;;19.10;99.90;;;;;;5040084;28;20458;-50
2022/08/27 05:29:03;;;;;;;16.83;13.73;;;19.10;99.90;;;;;;5030896;28;20514;-50
2022/08/27 05:31:29;;;;;;;21.63;14.50;;;19.00;99.90;;;;;;5030585;28;20504;-50
2022/08/27 05:33:57;;;;;;;21.07;15.57;;;19.00;99.90;;;;;;5028623;28;20467;-50
2022/08/27 05:36:26;;;;;;;21.83;14.50;;;19.10;99.90;;;;;;5031191;28;20496;-51
2022/08/27 05:38:54;;;;;;;21.63;14.07;;;19.10;99.90;;;;;;5036245;28;20459;-49
2022/08/27 05:41:26;;;;;;;24.27;13.77;;;19.10;99.90;;;;;;5027450;28;20468;-51
2022/08/27 05:43:56;;;;;;;21.23;13.57;;;19.00;99.90;;;;;;5025537;28;20467;-50
2022/08/27 05:46:24;;;;;;;24.70;14.50;;;19.10;99.90;;;;;;5029479;28;20479;-50
2022/08/27 05:48:51;;;;;;;27.53;13.03;;;19.10;99.90;;;;;;5030532;28;20589;-50
2022/08/27 05:51:20;;;;;;;23.23;13.43;;;19.10;99.90;;;;;;5032749;28;20462;-50
2022/08/27 05:53:47;;;;;;;20.77;14.03;;;19.10;99.90;;;;;;5026286;28;20944;-49
2022/08/27 05:56:16;;;;;;;27.13;12.80;;;19.10;99.90;;;;;;5033644;28;20486;-50
2022/08/27 06:01:30;;;;;;;22.13;12.97;;;19.10;99.90;;;;;;5024924;28;20946;-50
2022/08/27 06:03:57;;;;;;;23.23;12.43;;;19.10;99.90;;;;;;5028689;28;20455;-50
2022/08/27 06:06:23;;;;;;;13.83;11.97;;;19.10;99.90;;;;;;5040168;28;20474;-50
2022/08/27 06:08:51;;;;;;;24.93;11.67;;;19.10;99.90;;;;;;5032063;28;20529;-50
2022/08/27 06:11:18;;;;;;;12.80;11.47;;;19.10;99.90;;;;;;5029732;28;20513;-51
2022/08/27 06:13:45;;;;;;;11.97;10.77;;;19.10;99.90;;;;;;5029787;28;20459;-50
2022/08/27 06:16:14;;;;;;;46.80;10.00;;;19.10;99.90;;;;;;5025845;28;20482;-50
2022/08/27 06:18:44;;;;;;;18.40;10.77;;;19.10;99.90;;;;;;5032109;28;21206;-50
2022/08/27 06:21:12;;;;;;;13.40;11.27;;;19.10;99.90;;;;;;5035483;28;20462;-50
2022/08/27 06:23:39;;;;;;;16.20;11.27;;;19.10;99.90;;;;;;5027136;28;20458;-50
2022/08/27 06:26:07;;;;;;;18.77;9.70;;;19.10;99.90;;;;;;5029347;28;21038;-51
2022/08/27 06:28:34;;;;;;;11.73;9.97;;;19.20;99.90;;;;;;5032756;28;20463;-50
2022/08/27 06:31:05;;;;;;;11.07;8.83;;;19.20;99.90;;;;;;5028500;28;20562;-49
2022/08/27 06:33:31;;;;;;;11.50;10.10;;;19.10;99.90;;;;;;5028923;28;20462;-50
2022/08/27 06:36:00;;;;;;;11.23;9.83;;;19.20;99.90;;;;;;5031873;28;20505;-51
2022/08/27 06:38:27;;;;;;;13.33;10.23;;;19.20;99.90;;;;;;5028836;28;20517;-51
2022/08/27 06:40:54;;;;;;;21.60;9.97;;;19.20;99.90;;;;;;5025456;28;20906;-50
2022/08/27 06:43:21;;;;;;;16.17;10.07;;;19.20;99.90;;;;;;5027564;28;20498;-50
2022/08/27 06:45:47;;;;;;;11.27;9.90;;;19.20;99.90;;;;;;5022518;28;21135;-50
2022/08/27 06:48:14;;;;;;;12.40;9.70;;;19.20;99.90;;;;;;5038399;28;20459;-50
2022/08/27 06:50:43;;;;;;;14.70;9.77;;;19.20;99.90;;;;;;5034735;28;20888;-50
2022/08/27 06:53:11;;;;;;;13.10;9.40;;;19.20;99.90;;;;;;5026841;28;20467;-50
2022/08/27 06:55:41;;;;;;;10.07;8.10;;;19.20;99.90;;;;;;5029408;28;21093;-50
2022/08/27 06:58:08;;;;;;;14.20;9.27;;;19.30;99.90;;;;;;5035278;28;20560;-50
2022/08/27 07:00:35;;;;;;;16.60;10.73;;;19.20;99.90;;;;;;5026250;28;20463;-49
2022/08/27 07:03:04;;;;;;;16.43;9.57;;;19.20;99.90;;;;;;5029238;28;20834;-50
2022/08/27 07:05:31;;;;;;;10.93;8.73;;;19.30;99.90;;;;;;5021822;28;20475;-49
2022/08/27 07:07:58;;;;;;;14.97;9.17;;;19.30;99.90;;;;;;5026603;28;20455;-50
2022/08/27 07:10:26;;;;;;;13.53;8.00;;;19.30;99.90;;;;;;5027301;28;20463;-50
2022/08/27 07:12:53;;;;;;;10.93;8.03;;;19.30;99.90;;;;;;5027467;28;20467;-50
2022/08/27 07:15:21;;;;;;;20.33;10.20;;;19.30;99.90;;;;;;5024013;28;20483;-50
2022/08/27 07:17:47;;;;;;;11.20;8.77;;;19.30;99.90;;;;;;5018423;28;20533;-51
2022/08/27 07:20:16;;;;;;;11.43;9.07;;;19.30;99.90;;;;;;5027884;28;20516;-49
2022/08/27 07:22:44;;;;;;;9.50;8.07;;;19.30;99.90;;;;;;5024337;28;20466;-50
2022/08/27 07:25:14;;;;;;;12.27;8.67;;;19.40;99.90;;;;;;5019903;28;20474;-49
2022/08/27 07:27:42;;;;;;;11.63;7.67;;;19.30;99.90;;;;;;5021449;28;20461;-49
2022/08/27 07:30:12;;;;;;;12.70;8.47;;;19.40;99.90;;;;;;5024663;28;20478;-50
2022/08/27 07:32:39;;;;;;;12.90;8.30;;;19.40;99.90;;;;;;5027398;28;20550;-51
2022/08/27 07:35:08;;;;;;;9.87;7.10;;;19.40;99.90;;;;;;5028992;28;20549;-50
2022/08/27 07:37:35;;;;;;;10.33;8.30;;;19.40;99.90;;;;;;5026850;28;20493;-49
2022/08/27 07:40:03;;;;;;;11.90;8.00;;;19.40;99.90;;;;;;5025652;28;20467;-50
2022/08/27 07:45:15;;;;;;;17.93;8.00;;;19.40;99.90;;;;;;5028236;28;20534;-50
2022/08/27 07:47:42;;;;;;;10.53;8.17;;;19.40;99.90;;;;;;5024010;28;20980;-50
2022/08/27 07:50:10;;;;;;;12.33;8.50;;;19.40;99.90;;;;;;5024717;28;20459;-50
2022/08/27 07:52:36;;;;;;;8.67;7.87;;;19.40;99.90;;;;;;5024742;28;20489;-49
2022/08/27 07:55:03;;;;;;;10.47;7.43;;;19.40;99.90;;;;;;5023212;28;20486;-53
2022/08/27 07:57:30;;;;;;;21.70;8.20;;;19.40;99.90;;;;;;5027115;28;21218;-54
2022/08/27 07:59:57;;;;;;;8.00;7.20;;;19.40;99.90;;;;;;5021886;28;20470;-53
2022/08/27 08:02:26;;;;;;;14.07;7.73;;;19.40;99.90;;;;;;5025497;28;20877;-53
2022/08/27 08:04:53;;;;;;;15.70;7.63;;;19.40;99.90;;;;;;5022905;28;20540;-53
2022/08/27 08:07:19;;;;;;;16.27;8.13;;;19.40;99.90;;;;;;5027996;28;20513;-53
2022/08/27 08:09:46;;;;;;;9.87;8.10;;;19.40;99.90;;;;;;5023017;28;20462;-54
2022/08/27 08:12:13;;;;;;;11.33;8.00;;;19.50;99.90;;;;;;5022714;28;20472;-54
2022/08/27 08:14:40;;;;;;;10.33;8.57;;;19.60;99.90;;;;;;5027807;28;20482;-54
2022/08/27 08:17:07;;;;;;;14.90;8.63;;;19.60;99.90;;;;;;5018746;28;20482;-54
2022/08/27 08:19:35;;;;;;;8.30;7.33;;;19.60;99.90;;;;;;5021137;28;20459;-53
2022/08/27 08:22:01;;;;;;;8.10;7.27;;;19.60;99.90;;;;;;5022958;28;20462;-55
2022/08/27 08:24:28;;;;;;;8.13;7.20;;;19.70;99.90;;;;;;5022025;28;20560;-54
2022/08/27 08:26:55;;;;;;;9.67;7.50;;;19.70;99.90;;;;;;5020858;28;20530;-54
2022/08/27 08:29:21;;;;;;;6.93;6.20;;;19.70;99.90;;;;;;5018419;28;20460;-53
2022/08/27 08:31:48;;;;;;;10.93;7.03;;;19.70;99.90;;;;;;5016214;28;20481;-53
2022/08/27 08:34:15;;;;;;;7.77;7.07;;;19.70;99.90;;;;;;5017029;28;20462;-55
2022/08/27 08:36:43;;;;;;;11.23;7.43;;;19.70;99.90;;;;;;5012488;28;20489;-53
2022/08/27 08:39:09;;;;;;;8.03;7.23;;;19.70;99.90;;;;;;5013762;28;20458;-53
2022/08/27 08:41:43;;;;;;;8.03;6.40;;;19.80;99.90;;;;;;5016821;28;20486;-53
2022/08/27 08:44:20;;;;;;;7.60;6.80;;;19.80;99.90;;;;;;5014235;28;20467;-55
2022/08/27 08:46:53;;;;;;;7.57;6.17;;;19.90;99.90;;;;;;5017641;28;20487;-55
2022/08/27 08:49:32;;;;;;;6.23;5.53;;;19.80;99.90;;;;;;5012095;28;20512;-53
2022/08/27 08:52:08;;;;;;;9.47;6.63;;;19.80;99.90;;;;;;5018161;28;20521;-54
2022/08/27 08:54:35;;;;;;;8.77;5.77;;;19.80;99.90;;;;;;5007913;28;20539;-55
2022/08/27 08:57:06;;;;;;;8.90;5.90;;;19.80;99.90;;;;;;5012694;28;20526;-54
2022/08/27 08:59:37;;;;;;;6.53;6.03;;;19.80;99.90;;;;;;5017278;28;21056;-53
2022/08/27 09:02:06;;;;;;;9.33;7.03;;;19.80;99.90;;;;;;5014299;28;20455;-53
2022/08/27 09:04:33;;;;;;;6.67;6.10;;;19.80;99.90;;;;;;5020695;28;21192;-53
2022/08/27 09:07:07;;;;;;;7.30;6.30;;;19.80;99.90;;;;;;5022818;28;20463;-53
2022/08/27 09:09:44;;;;;;;7.70;5.67;;;19.90;99.90;;;;;;5021841;28;20545;-54
2022/08/27 09:12:15;;;;;;;6.97;6.27;;;19.90;99.90;;;;;;5025386;28;20540;-53
2022/08/27 09:14:46;;;;;;;8.67;7.20;;;19.90;99.90;;;;;;5025936;28;20486;-50
2022/08/27 09:17:13;;;;;;;6.67;6.10;;;20.00;99.90;;;;;;5019127;28;21014;-50
2022/08/27 09:19:41;;;;;;;6.93;5.93;;;20.00;99.90;;;;;;5021395;28;20492;-50
2022/08/27 09:22:17;;;;;;;8.43;6.47;;;20.00;99.90;;;;;;5018503;28;20497;-49
2022/08/27 09:24:52;;;;;;;6.60;6.00;;;20.00;99.90;;;;;;5022139;28;20481;-49
2022/08/27 09:27:20;;;;;;;7.33;5.83;;;20.00;99.90;;;;;;5020137;28;20459;-50
2022/08/27 09:29:49;;;;;;;6.90;5.97;;;20.10;99.90;;;;;;5023376;28;21066;-50
2022/08/27 09:32:16;;;;;;;7.40;5.73;;;20.10;99.90;;;;;;5018538;28;21041;-49
2022/08/27 09:34:44;;;;;;;10.40;6.13;;;20.10;99.90;;;;;;5015932;28;20486;-50
2022/08/27 09:37:15;;;;;;;7.40;5.47;;;20.10;99.90;;;;;;5018081;28;20910;-50
2022/08/27 09:39:49;;;;;;;6.70;6.10;;;20.10;99.90;;;;;;5022808;28;20828;-50
2022/08/27 09:42:35;;;;;;;8.80;5.27;;;20.10;99.90;;;;;;5022024;28;21021;-49
2022/08/27 09:45:08;;;;;;;6.33;5.70;;;20.10;99.90;;;;;;5031035;28;20481;-50
2022/08/27 09:47:42;;;;;;;5.33;4.80;;;20.10;99.90;;;;;;5027193;28;20451;-51
2022/08/27 09:50:09;;;;;;;8.50;5.83;;;20.10;99.90;;;;;;5026353;28;20485;-50
2022/08/27 09:52:47;;;;;;;5.93;5.43;;;20.20;99.90;;;;;;5024470;28;20458;-51
2022/08/27 09:55:26;;;;;;;6.20;5.47;;;20.20;99.90;;;;;;5025347;28;20489;-50
2022/08/27 09:57:53;;;;;;;10.37;6.20;;;20.30;99.90;;;;;;5023500;28;20536;-50
2022/08/27 10:00:32;;;;;;;7.93;7.13;;;20.40;99.90;;;;;;5021516;28;20558;-50
2022/08/27 10:03:01;;;;;;;9.63;6.73;;;20.40;99.90;;;;;;5023731;28;20513;-50
2022/08/27 10:05:32;;;;;;;8.83;6.17;;;20.50;99.90;;;;;;5024443;28;20486;-50
2022/08/27 10:08:04;;;;;;;14.07;6.00;;;20.50;99.90;;;;;;5024087;28;20477;-50
2022/08/27 10:10:40;;;;;;;6.97;6.27;;;20.50;99.90;;;;;;5024855;28;20463;-50
2022/08/27 10:13:10;;;;;;;7.03;6.43;;;20.50;99.90;;;;;;5020544;28;20489;-51
2022/08/27 10:15:43;;;;;;;9.13;5.57;;;20.60;99.90;;;;;;5024695;28;20486;-51
2022/08/27 10:18:18;;;;;;;8.33;5.60;;;20.60;99.90;;;;;;5024333;28;20476;-49
2022/08/27 10:21:00;;;;;;;7.20;5.57;;;20.60;99.90;;;;;;5019842;28;20506;-54
2022/08/27 10:23:37;;;;;;;6.07;5.50;;;20.70;1.40;;;;;;5016150;28;20487;-51
2022/08/27 10:26:11;;;;;;;12.83;5.40;;;20.70;99.90;;;;;;5021398;28;20483;-51
2022/08/27 10:28:49;;;;;;;5.97;5.47;;;20.70;99.90;;;;;;5022074;28;22482;-50
2022/08/27 10:31:24;;;;;;;5.83;5.07;;;20.80;99.90;;;;;;5018181;28;20486;-51
2022/08/27 10:34:10;;;;;;;5.20;4.70;;;20.80;99.90;;;;;;5019887;28;20486;-50
2022/08/27 10:36:47;;;;;;;4.17;3.87;;;20.80;99.90;;;;;;5050156;22;21052;-51
2022/08/27 10:39:24;;;;;;;4.83;4.43;;;20.80;99.90;;;;;;5045651;28;20481;-52
2022/08/27 10:41:59;;;;;;;6.40;4.17;;;20.80;99.90;;;;;;5042611;28;20453;-51
2022/08/27 10:44:46;;;;;;;4.60;4.20;;;20.80;99.90;;;;;;5044399;28;20503;-51
2022/08/27 10:47:40;;;;;;;6.73;4.50;;;20.80;99.90;;;;;;5041434;28;21277;-51
2022/08/27 10:50:10;;;;;;;5.90;4.50;;;20.80;99.90;;;;;;5040349;28;20489;-51
2022/08/27 10:52:43;;;;;;;4.37;4.07;;;20.90;99.90;;;;;;5041723;28;20517;-52
2022/08/27 10:55:19;;;;;;;6.50;4.63;;;21.00;99.90;;;;;;5043025;28;20453;-52
2022/08/27 10:58:17;;;;;;;4.70;4.30;;;21.10;99.90;;;;;;5043668;28;21465;-51
2022/08/27 11:00:50;;;;;;;7.67;4.90;;;21.20;99.90;;;;;;5044574;28;20537;-52
2022/08/27 11:03:24;;;;;;;6.30;4.77;;;21.20;99.90;;;;;;5044349;28;20515;-52
2022/08/27 11:05:51;;;;;;;4.30;4.00;;;21.30;99.90;;;;;;5044241;28;20509;-51
2022/08/27 11:08:22;;;;;;;6.33;4.93;;;21.20;99.90;;;;;;5045054;28;20454;-51
2022/08/27 11:10:55;;;;;;;10.23;4.30;;;21.20;99.90;;;;;;5047252;28;20959;-51
2022/08/27 11:13:31;;;;;;;5.43;4.93;;;21.20;99.90;;;;;;5041028;28;20458;-52
2022/08/27 11:16:01;;;;;;;5.33;4.53;;;21.10;99.90;;;;;;5047208;28;20543;-52
2022/08/27 11:18:38;;;;;;;9.33;4.60;;;21.10;99.90;;;;;;5047635;28;20474;-51
2022/08/27 11:21:13;;;;;;;5.00;4.50;;;21.00;99.90;;;;;;5048818;28;20457;-52
2022/08/27 11:23:44;;;;;;;5.20;4.70;;;21.00;99.90;;;;;;5048698;28;20458;-51
2022/08/27 11:26:12;;;;;;;6.40;4.40;;;21.10;99.90;;;;;;5046535;28;21048;-52
2022/08/27 11:28:42;;;;;;;5.03;4.43;;;21.10;99.90;;;;;;5049092;28;20515;-51
2022/08/27 11:31:16;;;;;;;6.30;4.87;;;21.10;99.90;;;;;;5050270;28;20890;-52
2022/08/27 11:33:49;;;;;;;5.80;4.70;;;21.10;99.90;;;;;;5051129;28;20498;-51
2022/08/27 11:36:37;;;;;;;7.80;4.70;;;21.10;99.90;;;;;;5052325;28;20469;-51
2022/08/27 11:39:05;;;;;;;5.00;4.00;;;21.10;99.90;;;;;;5048473;28;20490;-51
2022/08/27 11:41:50;;;;;;;5.00;4.47;;;21.10;99.90;;;;;;5050253;28;20523;-52
2022/08/27 11:44:20;;;;;;;7.00;5.60;;;21.10;99.90;;;;;;5044488;28;20458;-52
2022/08/27 11:46:50;;;;;;;6.70;5.00;;;21.00;99.90;;;;;;5038383;28;20567;-52
2022/08/27 11:49:29;;;;;;;9.50;5.10;;;20.90;99.90;;;;;;5047354;28;20462;-51
2022/08/27 11:52:00;;;;;;;9.53;5.03;;;20.80;99.90;;;;;;5041150;28;20868;-52
2022/08/27 11:54:30;;;;;;;12.30;4.60;;;20.70;99.90;;;;;;5046193;28;20999;-52
2022/08/27 11:56:58;;;;;;;6.00;4.40;;;20.70;99.90;;;;;;5046840;28;20527;-52
2022/08/27 11:59:32;;;;;;;8.00;4.70;;;20.60;99.90;;;;;;5049850;28;20990;-52
2022/08/27 12:02:11;;;;;;;9.60;3.97;;;20.60;99.90;;;;;;5037112;28;20453;-52
2022/08/27 12:04:40;;;;;;;4.40;4.00;;;20.60;99.90;;;;;;5046868;28;20465;-51
2022/08/27 12:07:26;;;;;;;6.97;4.40;;;20.60;99.90;;;;;;5048491;28;20508;-53
2022/08/27 12:10:06;;;;;;;5.17;4.57;;;20.60;99.90;;;;;;5046487;28;20951;-52
2022/08/27 12:12:48;;;;;;;5.27;4.40;;;20.60;99.90;;;;;;5048710;28;20500;-52
2022/08/27 12:15:18;;;;;;;8.63;4.90;;;20.70;99.90;;;;;;5032595;28;20442;-52
2022/08/27 12:17:51;;;;;;;4.83;4.43;;;20.80;99.90;;;;;;5048392;28;20484;-53
2022/08/27 12:20:25;;;;;;;5.73;4.60;;;20.90;99.90;;;;;;5050247;28;20458;-52
2022/08/27 12:25:56;;;;;;;5.60;5.10;;;21.00;99.90;;;;;;5050606;28;20496;-52
2022/08/27 12:28:26;;;;;;;5.90;5.40;;;21.00;99.50;;;;;;5051771;28;20438;-54
2022/08/27 12:30:53;;;;;;;14.80;7.17;;;21.00;99.00;;;;;;5042581;28;20507;-52
2022/08/27 12:33:30;;;;;;;8.87;5.70;;;21.10;97.30;;;;;;5052667;28;20445;-53
2022/08/27 12:36:03;;;;;;;5.27;4.83;;;21.10;95.20;;;;;;5055111;28;20882;-52
2022/08/27 12:38:42;;;;;;;5.80;5.20;;;21.20;94.90;;;;;;5055392;28;20478;-52
2022/08/27 12:41:09;;;;;;;5.40;4.90;;;21.30;94.20;;;;;;5053796;28;20471;-53
2022/08/27 12:43:42;;;;;;;5.80;5.20;;;21.40;93.40;;;;;;5052951;28;20472;-53
2022/08/27 12:46:14;;;;;;;5.97;4.50;;;21.60;92.20;;;;;;5046900;28;20493;-52
2022/08/27 12:48:44;;;;;;;6.10;5.60;;;21.60;90.00;;;;;;5047703;28;20485;-52
2022/08/27 12:51:14;;;;;;;6.10;5.50;;;21.60;88.20;;;;;;5048544;28;20608;-53
2022/08/27 12:53:44;;;;;;;5.53;4.83;;;21.80;85.60;;;;;;5053780;28;20438;-52
2022/08/27 12:56:49;;;;;;;6.00;4.83;;;21.80;84.60;;;;;;5053896;28;20466;-51